Language selection

Features

My Weather Profile Weather Topics  | 

Douglas Channel: Past 24 Hour Conditions

 

Prince Rupert Airport

03:00 PM PST 27 November 2021
Disclaimer

This table is a summary of hourly weather conditions for the past 24 hours.
Please note that these observations might not always be representative of weather conditions over their associated marine area.

Date / Time
(PST)
Wind(knots) Conditions Visibility(km) Pressure(kPa) Air tempC) Relative humidity(%) Dew pointC)
27 November 2021
15:00 SSE 16 gust 31 Cloudy 16 99.6 9 84 7
14:00 SSE 19 gust 27 Mostly Cloudy 16 99.6 9 84 7
13:00 SSE 15 gust 21 Cloudy 16 99.5 9 81 6
12:00 SE 14 gust 30 Cloudy 16 99.6 9 75 5
11:00 SE 16 gust 28 Cloudy 16 99.6 9 73 4
10:00 SE 23 gust 34 Cloudy 16 99.6 8 72 4
9:00 SE 20 gust 31 Cloudy 16 99.6 7 73 3
8:00 SE 22 gust 32 Light Rain 16 99.7 6 78 2
7:00 ESE 11 gust 16 Light Rain 16 99.9 4 84 2
6:00 ESE 8 gust 15 Light Rain 16 100.1 4 83 1
5:00 E 7 gust 16 Light Rain 16 100.4 3 85 0
4:00 E 6 Light Rain 16 100.7 2 89 1
3:00 E 10 gust 16 Light Rain 16 100.9 3 79 0
2:00 ESE 11 Cloudy 16 101.1 4 61 -3
1:00 ESE 9 Cloudy 16 101.2 4 61 -3
0:00 ESE 10 gust 15 Cloudy 16 101.4 4 63 -3
26 November 2021
23:00 ESE 8 Cloudy 16 101.5 3 68 -2
22:00 ESE 8 Cloudy 16 101.7 3 75 -1
21:00 ESE 7 Cloudy 16 101.7 3 77 -1
20:00 ESE 8 Cloudy 16 101.8 3 79 -1
19:00 SE 6 Cloudy 16 101.9 3 85 0
18:00 SE 10 gust 15 Clear 16 101.9 2 85 0
17:00 SE 10 gust 16 Clear 16 102.0 2 91 0
16:00 SE 8 Mostly Cloudy 16 102.0 2 90 1
15:00 SSE 13 Light Rain 16 102.0 4 87 2

Zoom-in to make a selection

Map of Pacific - North Coast marine weather areas Middle Nomad - 46004 South Nomad - 46036 Dixon Entrance Central - 46145 South Moresby - 46147 Nanakwa Shoal - 46181 North Hecate Strait - 46183 North Nomad - 46184 South Hecate Strait - 46185 West Sea Otter - 46204 West Dixon Entrance - 46205 East Dellwood - 46207 West Moresby - 46208 Sartine Island Cape St.James Kindakun Rocks Langara Island Masset Municipal Airport Rose Spit Sandspit Airport Bella Bella Airport Bella Coola Airport Bonilla Island Cathedral Point Cumshewa Island Grey Islet Holland Rock Lucy Islands Lightstation Prince Rupert Airport
Legend:
buoy Buoy
land station Land Station

Pacific - North Coast Area

Another Region

What we are doing

Date modified: